Terminal Aerodrome Forecast
Issued by NWS

Home | Current Version | Previous Version | Text Only | Print | Product List | Glossary On
Versions: 1 2 3 4 5 6 7 8 9 10 11 12 13 14 15 16 17 18 19
000
FTUS46 KMFR 042330
TAFOTH
TAF
KOTH 042330Z 0500/0524 28009KT P6SM SCT035
     FM050100 30006KT P6SM SCT020 BKN035
     FM050200 30006KT P6SM BKN020 BKN035
     FM050500 VRB04KT P6SM -SHRA SCT020 BKN035
     FM051800 32008KT P6SM -SHRA SCT025 BKN040=

USA.gov is the U.S. government's official web portal to all federal, state and local government web resources and services.